sensor_id;sensor_type;location;lat;lon;timestamp;P1;durP1;ratioP1;P2;durP2;ratioP2
18997;SDS011;9632;51.018;4.284;2023-07-02T00:00:38;36.22;;;13.35;;
18997;SDS011;9632;51.018;4.284;2023-07-02T00:03:03;32.38;;;12.98;;
18997;SDS011;9632;51.018;4.284;2023-07-02T00:05:29;32.13;;;13.60;;
18997;SDS011;9632;51.018;4.284;2023-07-02T00:07:55;32.47;;;13.98;;
18997;SDS011;9632;51.018;4.284;2023-07-02T00:10:21;34.97;;;14.13;;
18997;SDS011;9632;51.018;4.284;2023-07-02T00:12:46;29.05;;;13.30;;
18997;SDS011;9632;51.018;4.284;2023-07-02T00:15:12;36.22;;;14.30;;
18997;SDS011;9632;51.018;4.284;2023-07-02T00:17:38;30.88;;;13.88;;
18997;SDS011;9632;51.018;4.284;2023-07-02T00:20:05;33.75;;;14.55;;
18997;SDS011;9632;51.018;4.284;2023-07-02T00:22:39;37.35;;;14.90;;
18997;SDS011;9632;51.018;4.284;2023-07-02T00:25:09;35.75;;;13.80;;
18997;SDS011;9632;51.018;4.284;2023-07-02T00:27:35;36.55;;;14.48;;
18997;SDS011;9632;51.018;4.284;2023-07-02T00:30:02;32.53;;;14.48;;
18997;SDS011;9632;51.018;4.284;2023-07-02T00:32:28;35.45;;;15.20;;
18997;SDS011;9632;51.018;4.284;2023-07-02T00:34:53;30.77;;;13.77;;
18997;SDS011;9632;51.018;4.284;2023-07-02T00:37:19;39.47;;;15.13;;
18997;SDS011;9632;51.018;4.284;2023-07-02T00:39:45;32.08;;;14.32;;
18997;SDS011;9632;51.018;4.284;2023-07-02T00:42:11;38.72;;;15.82;;
18997;SDS011;9632;51.018;4.284;2023-07-02T00:44:37;35.72;;;15.48;;
18997;SDS011;9632;51.018;4.284;2023-07-02T00:47:09;36.97;;;15.70;;
18997;SDS011;9632;51.018;4.284;2023-07-02T00:49:35;33.80;;;14.35;;
18997;SDS011;9632;51.018;4.284;2023-07-02T00:52:01;38.53;;;14.63;;
18997;SDS011;9632;51.018;4.284;2023-07-02T00:54:27;35.88;;;14.85;;
18997;SDS011;9632;51.018;4.284;2023-07-02T00:56:54;36.75;;;16.05;;
18997;SDS011;9632;51.018;4.284;2023-07-02T00:59:20;38.97;;;15.65;;
18997;SDS011;9632;51.018;4.284;2023-07-02T01:01:45;36.20;;;15.23;;
18997;SDS011;9632;51.018;4.284;2023-07-02T01:04:16;39.60;;;15.70;;
18997;SDS011;9632;51.018;4.284;2023-07-02T01:06:43;33.67;;;14.65;;
18997;SDS011;9632;51.018;4.284;2023-07-02T01:09:09;43.38;;;16.33;;
18997;SDS011;9632;51.018;4.284;2023-07-02T01:14:21;38.33;;;15.93;;
18997;SDS011;9632;51.018;4.284;2023-07-02T01:16:59;40.70;;;15.70;;
18997;SDS011;9632;51.018;4.284;2023-07-02T01:19:50;38.97;;;16.05;;
18997;SDS011;9632;51.018;4.284;2023-07-02T01:22:21;40.25;;;16.80;;
18997;SDS011;9632;51.018;4.284;2023-07-02T01:24:49;35.63;;;15.40;;
18997;SDS011;9632;51.018;4.284;2023-07-02T01:27:16;39.42;;;16.40;;
18997;SDS011;9632;51.018;4.284;2023-07-02T01:29:42;36.72;;;15.75;;
18997;SDS011;9632;51.018;4.284;2023-07-02T01:32:09;41.47;;;16.70;;
18997;SDS011;9632;51.018;4.284;2023-07-02T01:34:35;41.70;;;17.23;;
18997;SDS011;9632;51.018;4.284;2023-07-02T01:37:02;39.38;;;16.70;;
18997;SDS011;9632;51.018;4.284;2023-07-02T01:39:29;40.97;;;16.20;;
18997;SDS011;9632;51.018;4.284;2023-07-02T01:41:55;39.90;;;17.10;;
18997;SDS011;9632;51.018;4.284;2023-07-02T01:44:33;41.70;;;17.10;;
18997;SDS011;9632;51.018;4.284;2023-07-02T01:46:58;42.33;;;17.60;;
18997;SDS011;9632;51.018;4.284;2023-07-02T01:49:24;36.90;;;16.95;;
18997;SDS011;9632;51.018;4.284;2023-07-02T01:51:50;46.78;;;17.13;;
18997;SDS011;9632;51.018;4.284;2023-07-02T01:54:17;44.40;;;17.63;;
18997;SDS011;9632;51.018;4.284;2023-07-02T01:56:46;49.30;;;17.88;;
18997;SDS011;9632;51.018;4.284;2023-07-02T01:59:12;43.75;;;17.05;;
18997;SDS011;9632;51.018;4.284;2023-07-02T02:01:38;37.08;;;16.65;;
18997;SDS011;9632;51.018;4.284;2023-07-02T02:04:07;37.20;;;17.63;;
18997;SDS011;9632;51.018;4.284;2023-07-02T02:06:33;39.95;;;17.70;;
18997;SDS011;9632;51.018;4.284;2023-07-02T02:08:59;44.35;;;17.55;;
18997;SDS011;9632;51.018;4.284;2023-07-02T02:11:26;44.28;;;18.30;;
18997;SDS011;9632;51.018;4.284;2023-07-02T02:13:51;42.55;;;17.95;;
18997;SDS011;9632;51.018;4.284;2023-07-02T02:16:17;41.47;;;16.92;;
18997;SDS011;9632;51.018;4.284;2023-07-02T02:18:43;43.08;;;17.08;;
18997;SDS011;9632;51.018;4.284;2023-07-02T02:21:08;39.08;;;17.08;;
18997;SDS011;9632;51.018;4.284;2023-07-02T02:23:34;42.22;;;18.10;;
18997;SDS011;9632;51.018;4.284;2023-07-02T02:26:00;40.97;;;17.13;;
18997;SDS011;9632;51.018;4.284;2023-07-02T02:28:26;48.15;;;18.95;;
18997;SDS011;9632;51.018;4.284;2023-07-02T02:30:51;41.55;;;17.85;;
18997;SDS011;9632;51.018;4.284;2023-07-02T02:33:17;45.92;;;18.35;;
18997;SDS011;9632;51.018;4.284;2023-07-02T02:35:43;41.58;;;17.35;;
18997;SDS011;9632;51.018;4.284;2023-07-02T02:38:08;39.45;;;16.25;;
18997;SDS011;9632;51.018;4.284;2023-07-02T02:40:34;39.33;;;17.23;;
18997;SDS011;9632;51.018;4.284;2023-07-02T02:43:00;47.75;;;18.05;;
18997;SDS011;9632;51.018;4.284;2023-07-02T02:45:25;43.60;;;18.92;;
18997;SDS011;9632;51.018;4.284;2023-07-02T02:47:51;41.45;;;16.75;;
18997;SDS011;9632;51.018;4.284;2023-07-02T02:50:16;42.97;;;17.35;;
18997;SDS011;9632;51.018;4.284;2023-07-02T02:52:42;46.17;;;18.65;;
18997;SDS011;9632;51.018;4.284;2023-07-02T02:55:08;39.15;;;17.45;;
18997;SDS011;9632;51.018;4.284;2023-07-02T02:57:35;40.35;;;16.90;;
18997;SDS011;9632;51.018;4.284;2023-07-02T03:00:01;39.30;;;17.48;;
18997;SDS011;9632;51.018;4.284;2023-07-02T03:02:27;49.75;;;18.55;;
18997;SDS011;9632;51.018;4.284;2023-07-02T03:04:53;43.88;;;18.20;;
18997;SDS011;9632;51.018;4.284;2023-07-02T03:07:19;53.97;;;18.17;;
18997;SDS011;9632;51.018;4.284;2023-07-02T03:09:44;46.13;;;16.85;;
18997;SDS011;9632;51.018;4.284;2023-07-02T03:12:10;43.78;;;18.17;;
18997;SDS011;9632;51.018;4.284;2023-07-02T03:14:36;42.90;;;18.38;;
18997;SDS011;9632;51.018;4.284;2023-07-02T03:17:02;39.85;;;18.13;;
18997;SDS011;9632;51.018;4.284;2023-07-02T03:19:28;36.20;;;17.13;;
18997;SDS011;9632;51.018;4.284;2023-07-02T03:21:53;45.42;;;18.17;;
18997;SDS011;9632;51.018;4.284;2023-07-02T03:24:19;40.58;;;17.05;;
18997;SDS011;9632;51.018;4.284;2023-07-02T03:26:45;43.22;;;18.35;;
18997;SDS011;9632;51.018;4.284;2023-07-02T03:29:10;43.47;;;17.92;;
18997;SDS011;9632;51.018;4.284;2023-07-02T03:31:37;46.15;;;19.00;;
18997;SDS011;9632;51.018;4.284;2023-07-02T03:34:03;41.10;;;18.60;;
18997;SDS011;9632;51.018;4.284;2023-07-02T03:36:31;38.05;;;17.88;;
18997;SDS011;9632;51.018;4.284;2023-07-02T03:38:56;42.63;;;17.65;;
18997;SDS011;9632;51.018;4.284;2023-07-02T03:41:22;44.95;;;17.92;;
18997;SDS011;9632;51.018;4.284;2023-07-02T03:43:48;37.47;;;17.98;;
18997;SDS011;9632;51.018;4.284;2023-07-02T03:46:13;41.08;;;17.27;;
18997;SDS011;9632;51.018;4.284;2023-07-02T03:48:39;46.10;;;18.48;;
18997;SDS011;9632;51.018;4.284;2023-07-02T03:51:05;45.08;;;18.80;;
18997;SDS011;9632;51.018;4.284;2023-07-02T03:53:31;49.38;;;19.50;;
18997;SDS011;9632;51.018;4.284;2023-07-02T03:55:57;51.03;;;19.55;;
18997;SDS011;9632;51.018;4.284;2023-07-02T03:58:22;45.42;;;18.77;;
18997;SDS011;9632;51.018;4.284;2023-07-02T04:00:48;46.13;;;19.13;;
18997;SDS011;9632;51.018;4.284;2023-07-02T04:03:17;55.88;;;21.05;;
18997;SDS011;9632;51.018;4.284;2023-07-02T04:05:43;49.58;;;19.58;;
18997;SDS011;9632;51.018;4.284;2023-07-02T04:08:09;49.97;;;20.35;;
18997;SDS011;9632;51.018;4.284;2023-07-02T04:10:35;55.75;;;21.08;;
18997;SDS011;9632;51.018;4.284;2023-07-02T04:13:01;49.42;;;19.95;;
18997;SDS011;9632;51.018;4.284;2023-07-02T04:15:26;43.92;;;18.90;;
18997;SDS011;9632;51.018;4.284;2023-07-02T04:17:52;44.83;;;18.65;;
18997;SDS011;9632;51.018;4.284;2023-07-02T04:20:18;48.53;;;19.58;;
18997;SDS011;9632;51.018;4.284;2023-07-02T04:22:45;49.70;;;19.50;;
18997;SDS011;9632;51.018;4.284;2023-07-02T04:25:11;47.20;;;19.60;;
18997;SDS011;9632;51.018;4.284;2023-07-02T04:27:40;54.35;;;20.77;;
18997;SDS011;9632;51.018;4.284;2023-07-02T04:30:06;51.03;;;20.75;;
18997;SDS011;9632;51.018;4.284;2023-07-02T04:32:33;48.72;;;19.85;;
18997;SDS011;9632;51.018;4.284;2023-07-02T04:34:58;58.45;;;21.80;;
18997;SDS011;9632;51.018;4.284;2023-07-02T04:37:24;49.63;;;20.10;;
18997;SDS011;9632;51.018;4.284;2023-07-02T04:39:50;40.88;;;18.40;;
18997;SDS011;9632;51.018;4.284;2023-07-02T04:42:15;54.03;;;20.40;;
18997;SDS011;9632;51.018;4.284;2023-07-02T04:44:41;49.55;;;20.40;;
18997;SDS011;9632;51.018;4.284;2023-07-02T04:47:08;48.45;;;19.98;;
18997;SDS011;9632;51.018;4.284;2023-07-02T04:49:34;53.65;;;20.38;;
18997;SDS011;9632;51.018;4.284;2023-07-02T04:51:59;50.25;;;20.33;;
18997;SDS011;9632;51.018;4.284;2023-07-02T04:54:25;51.20;;;19.95;;
18997;SDS011;9632;51.018;4.284;2023-07-02T04:56:50;51.00;;;20.27;;
18997;SDS011;9632;51.018;4.284;2023-07-02T04:59:16;48.53;;;20.02;;
18997;SDS011;9632;51.018;4.284;2023-07-02T05:01:44;58.85;;;20.73;;
18997;SDS011;9632;51.018;4.284;2023-07-02T05:04:10;57.25;;;21.70;;
18997;SDS011;9632;51.018;4.284;2023-07-02T05:06:38;41.97;;;18.73;;
18997;SDS011;9632;51.018;4.284;2023-07-02T05:09:04;49.92;;;20.33;;
18997;SDS011;9632;51.018;4.284;2023-07-02T05:11:30;54.55;;;21.00;;
18997;SDS011;9632;51.018;4.284;2023-07-02T05:13:56;52.05;;;20.90;;
18997;SDS011;9632;51.018;4.284;2023-07-02T05:16:21;51.72;;;19.30;;
18997;SDS011;9632;51.018;4.284;2023-07-02T05:18:47;51.03;;;20.30;;
18997;SDS011;9632;51.018;4.284;2023-07-02T05:21:13;58.20;;;20.35;;
18997;SDS011;9632;51.018;4.284;2023-07-02T05:23:42;50.45;;;18.60;;
18997;SDS011;9632;51.018;4.284;2023-07-02T05:26:08;58.83;;;20.88;;
18997;SDS011;9632;51.018;4.284;2023-07-02T05:28:34;56.75;;;20.48;;
18997;SDS011;9632;51.018;4.284;2023-07-02T05:30:59;51.67;;;21.15;;
18997;SDS011;9632;51.018;4.284;2023-07-02T05:33:25;51.03;;;19.67;;
18997;SDS011;9632;51.018;4.284;2023-07-02T05:35:51;53.15;;;18.77;;
18997;SDS011;9632;51.018;4.284;2023-07-02T05:38:19;60.97;;;21.92;;
18997;SDS011;9632;51.018;4.284;2023-07-02T05:40:45;52.55;;;20.58;;
18997;SDS011;9632;51.018;4.284;2023-07-02T05:43:11;51.55;;;19.77;;
18997;SDS011;9632;51.018;4.284;2023-07-02T05:45:37;47.08;;;19.08;;
18997;SDS011;9632;51.018;4.284;2023-07-02T05:48:02;55.58;;;20.15;;
18997;SDS011;9632;51.018;4.284;2023-07-02T05:50:28;52.50;;;20.42;;
18997;SDS011;9632;51.018;4.284;2023-07-02T05:52:54;52.78;;;19.90;;
18997;SDS011;9632;51.018;4.284;2023-07-02T05:55:19;57.78;;;19.73;;
18997;SDS011;9632;51.018;4.284;2023-07-02T05:57:45;53.50;;;19.15;;
18997;SDS011;9632;51.018;4.284;2023-07-02T06:00:11;53.45;;;19.90;;
18997;SDS011;9632;51.018;4.284;2023-07-02T06:02:38;49.85;;;19.27;;
18997;SDS011;9632;51.018;4.284;2023-07-02T06:05:03;56.42;;;20.77;;
18997;SDS011;9632;51.018;4.284;2023-07-02T06:07:29;54.35;;;20.55;;
18997;SDS011;9632;51.018;4.284;2023-07-02T06:09:55;47.00;;;19.23;;
18997;SDS011;9632;51.018;4.284;2023-07-02T06:12:21;54.03;;;19.52;;
18997;SDS011;9632;51.018;4.284;2023-07-02T06:14:47;51.55;;;19.70;;
18997;SDS011;9632;51.018;4.284;2023-07-02T06:17:13;47.83;;;17.67;;
18997;SDS011;9632;51.018;4.284;2023-07-02T06:19:40;51.63;;;18.38;;
18997;SDS011;9632;51.018;4.284;2023-07-02T06:22:06;44.53;;;16.75;;
18997;SDS011;9632;51.018;4.284;2023-07-02T06:24:31;48.20;;;17.25;;
18997;SDS011;9632;51.018;4.284;2023-07-02T06:26:57;42.20;;;17.08;;
18997;SDS011;9632;51.018;4.284;2023-07-02T06:29:23;44.50;;;16.85;;
18997;SDS011;9632;51.018;4.284;2023-07-02T06:31:49;44.03;;;16.45;;
18997;SDS011;9632;51.018;4.284;2023-07-02T06:34:15;36.75;;;15.02;;
18997;SDS011;9632;51.018;4.284;2023-07-02T06:36:41;39.03;;;14.60;;
18997;SDS011;9632;51.018;4.284;2023-07-02T06:39:07;32.42;;;13.98;;
18997;SDS011;9632;51.018;4.284;2023-07-02T06:41:34;39.00;;;14.57;;
18997;SDS011;9632;51.018;4.284;2023-07-02T06:44:03;34.70;;;11.63;;
18997;SDS011;9632;51.018;4.284;2023-07-02T06:46:29;33.38;;;12.45;;
18997;SDS011;9632;51.018;4.284;2023-07-02T06:48:55;35.65;;;12.90;;
18997;SDS011;9632;51.018;4.284;2023-07-02T06:51:21;33.40;;;11.27;;
18997;SDS011;9632;51.018;4.284;2023-07-02T06:53:47;23.50;;;9.38;;
18997;SDS011;9632;51.018;4.284;2023-07-02T06:56:13;32.85;;;11.50;;
18997;SDS011;9632;51.018;4.284;2023-07-02T06:58:41;24.65;;;9.02;;
18997;SDS011;9632;51.018;4.284;2023-07-02T07:01:08;24.83;;;8.55;;
18997;SDS011;9632;51.018;4.284;2023-07-02T07:03:34;27.73;;;8.80;;
18997;SDS011;9632;51.018;4.284;2023-07-02T07:06:00;21.58;;;8.77;;
18997;SDS011;9632;51.018;4.284;2023-07-02T07:08:26;23.98;;;8.27;;
18997;SDS011;9632;51.018;4.284;2023-07-02T07:10:52;22.25;;;7.80;;
18997;SDS011;9632;51.018;4.284;2023-07-02T07:13:17;27.92;;;8.13;;
18997;SDS011;9632;51.018;4.284;2023-07-02T07:15:43;23.17;;;7.65;;
18997;SDS011;9632;51.018;4.284;2023-07-02T07:18:09;25.52;;;7.53;;
18997;SDS011;9632;51.018;4.284;2023-07-02T07:20:35;19.60;;;7.25;;
18997;SDS011;9632;51.018;4.284;2023-07-02T07:23:02;17.52;;;6.57;;
18997;SDS011;9632;51.018;4.284;2023-07-02T07:25:28;21.70;;;6.90;;
18997;SDS011;9632;51.018;4.284;2023-07-02T07:27:54;20.08;;;6.40;;
18997;SDS011;9632;51.018;4.284;2023-07-02T07:30:20;18.90;;;6.13;;
18997;SDS011;9632;51.018;4.284;2023-07-02T07:32:49;20.17;;;6.38;;
18997;SDS011;9632;51.018;4.284;2023-07-02T07:35:15;19.05;;;6.03;;
18997;SDS011;9632;51.018;4.284;2023-07-02T07:37:43;19.85;;;5.55;;
18997;SDS011;9632;51.018;4.284;2023-07-02T07:40:09;18.75;;;5.80;;
18997;SDS011;9632;51.018;4.284;2023-07-02T07:42:35;16.08;;;5.35;;
18997;SDS011;9632;51.018;4.284;2023-07-02T07:45:01;13.18;;;5.63;;
18997;SDS011;9632;51.018;4.284;2023-07-02T07:47:28;19.20;;;5.60;;
18997;SDS011;9632;51.018;4.284;2023-07-02T07:49:53;19.60;;;6.28;;
18997;SDS011;9632;51.018;4.284;2023-07-02T07:52:19;14.05;;;5.47;;
18997;SDS011;9632;51.018;4.284;2023-07-02T07:54:45;12.88;;;4.90;;
18997;SDS011;9632;51.018;4.284;2023-07-02T07:57:11;17.55;;;5.50;;
18997;SDS011;9632;51.018;4.284;2023-07-02T07:59:37;15.65;;;5.57;;
18997;SDS011;9632;51.018;4.284;2023-07-02T08:02:02;14.95;;;5.40;;
18997;SDS011;9632;51.018;4.284;2023-07-02T08:04:28;17.02;;;5.25;;
18997;SDS011;9632;51.018;4.284;2023-07-02T08:06:54;17.73;;;5.68;;
18997;SDS011;9632;51.018;4.284;2023-07-02T08:09:20;12.88;;;4.80;;
18997;SDS011;9632;51.018;4.284;2023-07-02T08:11:49;16.83;;;5.50;;
18997;SDS011;9632;51.018;4.284;2023-07-02T08:14:14;13.63;;;5.25;;
18997;SDS011;9632;51.018;4.284;2023-07-02T08:16:41;13.50;;;4.70;;
18997;SDS011;9632;51.018;4.284;2023-07-02T08:19:07;14.20;;;4.88;;
18997;SDS011;9632;51.018;4.284;2023-07-02T08:21:33;13.27;;;4.82;;
18997;SDS011;9632;51.018;4.284;2023-07-02T08:23:58;15.43;;;5.63;;
18997;SDS011;9632;51.018;4.284;2023-07-02T08:26:24;15.95;;;5.70;;
18997;SDS011;9632;51.018;4.284;2023-07-02T08:28:49;18.45;;;6.18;;
18997;SDS011;9632;51.018;4.284;2023-07-02T08:31:16;19.08;;;6.03;;
18997;SDS011;9632;51.018;4.284;2023-07-02T08:33:41;18.85;;;6.22;;
18997;SDS011;9632;51.018;4.284;2023-07-02T08:36:07;20.23;;;6.75;;
18997;SDS011;9632;51.018;4.284;2023-07-02T08:38:32;20.95;;;6.97;;
18997;SDS011;9632;51.018;4.284;2023-07-02T08:40:58;17.75;;;6.82;;
18997;SDS011;9632;51.018;4.284;2023-07-02T08:43:24;20.27;;;7.43;;
18997;SDS011;9632;51.018;4.284;2023-07-02T08:45:52;23.33;;;7.93;;
18997;SDS011;9632;51.018;4.284;2023-07-02T08:48:18;23.30;;;7.72;;
18997;SDS011;9632;51.018;4.284;2023-07-02T08:50:48;24.80;;;8.52;;
18997;SDS011;9632;51.018;4.284;2023-07-02T08:53:14;26.05;;;9.07;;
18997;SDS011;9632;51.018;4.284;2023-07-02T08:55:40;23.60;;;8.90;;
18997;SDS011;9632;51.018;4.284;2023-07-02T08:58:06;23.27;;;9.10;;
18997;SDS011;9632;51.018;4.284;2023-07-02T09:00:31;22.80;;;8.95;;
18997;SDS011;9632;51.018;4.284;2023-07-02T09:03:14;30.58;;;9.32;;
18997;SDS011;9632;51.018;4.284;2023-07-02T09:05:52;23.48;;;8.10;;
18997;SDS011;9632;51.018;4.284;2023-07-02T09:08:27;23.52;;;8.75;;
18997;SDS011;9632;51.018;4.284;2023-07-02T09:10:53;27.40;;;9.38;;
18997;SDS011;9632;51.018;4.284;2023-07-02T09:13:29;23.88;;;8.98;;
18997;SDS011;9632;51.018;4.284;2023-07-02T09:15:55;23.08;;;9.02;;
18997;SDS011;9632;51.018;4.284;2023-07-02T09:18:21;25.73;;;9.75;;
18997;SDS011;9632;51.018;4.284;2023-07-02T09:20:51;26.98;;;9.35;;
18997;SDS011;9632;51.018;4.284;2023-07-02T09:23:19;27.45;;;9.77;;
18997;SDS011;9632;51.018;4.284;2023-07-02T09:25:45;27.98;;;10.07;;
18997;SDS011;9632;51.018;4.284;2023-07-02T09:28:15;25.30;;;10.18;;
18997;SDS011;9632;51.018;4.284;2023-07-02T09:30:49;25.60;;;9.85;;
18997;SDS011;9632;51.018;4.284;2023-07-02T09:33:16;28.77;;;10.43;;
18997;SDS011;9632;51.018;4.284;2023-07-02T09:35:42;29.45;;;10.00;;
18997;SDS011;9632;51.018;4.284;2023-07-02T09:38:09;26.85;;;10.10;;
18997;SDS011;9632;51.018;4.284;2023-07-02T09:40:36;24.70;;;10.07;;
18997;SDS011;9632;51.018;4.284;2023-07-02T09:43:09;26.75;;;10.43;;
18997;SDS011;9632;51.018;4.284;2023-07-02T09:45:36;28.63;;;10.05;;
18997;SDS011;9632;51.018;4.284;2023-07-02T09:48:02;30.42;;;10.77;;
18997;SDS011;9632;51.018;4.284;2023-07-02T09:50:29;23.55;;;10.07;;
18997;SDS011;9632;51.018;4.284;2023-07-02T09:52:55;27.67;;;9.63;;
18997;SDS011;9632;51.018;4.284;2023-07-02T09:55:21;26.55;;;10.27;;
18997;SDS011;9632;51.018;4.284;2023-07-02T09:57:46;28.83;;;9.35;;
18997;SDS011;9632;51.018;4.284;2023-07-02T10:00:13;30.77;;;9.27;;
18997;SDS011;9632;51.018;4.284;2023-07-02T10:02:39;26.58;;;10.07;;
18997;SDS011;9632;51.018;4.284;2023-07-02T10:05:05;25.98;;;10.13;;
18997;SDS011;9632;51.018;4.284;2023-07-02T10:07:31;27.23;;;9.57;;
18997;SDS011;9632;51.018;4.284;2023-07-02T10:09:58;22.02;;;8.73;;
18997;SDS011;9632;51.018;4.284;2023-07-02T10:12:27;26.42;;;8.73;;
18997;SDS011;9632;51.018;4.284;2023-07-02T10:14:54;23.13;;;8.88;;
18997;SDS011;9632;51.018;4.284;2023-07-02T10:19:52;22.73;;;8.63;;
18997;SDS011;9632;51.018;4.284;2023-07-02T10:22:19;25.13;;;9.32;;
18997;SDS011;9632;51.018;4.284;2023-07-02T10:24:57;26.10;;;9.30;;
18997;SDS011;9632;51.018;4.284;2023-07-02T10:27:33;24.92;;;8.88;;
18997;SDS011;9632;51.018;4.284;2023-07-02T10:29:59;25.42;;;8.52;;
18997;SDS011;9632;51.018;4.284;2023-07-02T10:32:25;27.90;;;9.30;;
18997;SDS011;9632;51.018;4.284;2023-07-02T10:34:56;25.50;;;9.52;;
18997;SDS011;9632;51.018;4.284;2023-07-02T10:37:23;27.38;;;9.45;;
18997;SDS011;9632;51.018;4.284;2023-07-02T10:39:49;22.50;;;8.95;;
18997;SDS011;9632;51.018;4.284;2023-07-02T10:42:16;26.75;;;9.32;;
18997;SDS011;9632;51.018;4.284;2023-07-02T10:44:51;24.95;;;9.38;;
18997;SDS011;9632;51.018;4.284;2023-07-02T10:47:18;29.65;;;9.57;;
18997;SDS011;9632;51.018;4.284;2023-07-02T10:49:44;26.30;;;10.07;;
18997;SDS011;9632;51.018;4.284;2023-07-02T10:52:10;24.98;;;9.18;;
18997;SDS011;9632;51.018;4.284;2023-07-02T10:57:09;24.38;;;9.10;;
18997;SDS011;9632;51.018;4.284;2023-07-02T10:59:37;27.83;;;9.45;;
18997;SDS011;9632;51.018;4.284;2023-07-02T11:02:03;19.52;;;7.57;;
18997;SDS011;9632;51.018;4.284;2023-07-02T11:04:30;24.88;;;8.50;;
18997;SDS011;9632;51.018;4.284;2023-07-02T11:06:56;23.90;;;7.75;;
18997;SDS011;9632;51.018;4.284;2023-07-02T11:09:22;22.75;;;8.27;;
18997;SDS011;9632;51.018;4.284;2023-07-02T11:12:01;27.48;;;8.82;;
18997;SDS011;9632;51.018;4.284;2023-07-02T11:16:57;20.85;;;7.35;;
18997;SDS011;9632;51.018;4.284;2023-07-02T11:19:24;21.92;;;7.22;;
18997;SDS011;9632;51.018;4.284;2023-07-02T11:21:53;19.75;;;7.10;;
18997;SDS011;9632;51.018;4.284;2023-07-02T11:24:26;21.75;;;6.70;;
18997;SDS011;9632;51.018;4.284;2023-07-02T11:26:56;21.30;;;6.93;;
18997;SDS011;9632;51.018;4.284;2023-07-02T11:29:23;19.92;;;7.05;;
18997;SDS011;9632;51.018;4.284;2023-07-02T11:31:48;19.48;;;7.15;;
18997;SDS011;9632;51.018;4.284;2023-07-02T11:34:18;23.10;;;7.57;;
18997;SDS011;9632;51.018;4.284;2023-07-02T11:36:45;20.35;;;7.63;;
18997;SDS011;9632;51.018;4.284;2023-07-02T11:39:11;21.65;;;7.95;;
18997;SDS011;9632;51.018;4.284;2023-07-02T11:41:44;24.05;;;8.30;;
18997;SDS011;9632;51.018;4.284;2023-07-02T11:44:11;20.48;;;8.00;;
18997;SDS011;9632;51.018;4.284;2023-07-02T11:46:36;23.20;;;8.27;;
18997;SDS011;9632;51.018;4.284;2023-07-02T11:49:02;21.98;;;7.55;;
18997;SDS011;9632;51.018;4.284;2023-07-02T11:51:30;25.08;;;8.00;;
18997;SDS011;9632;51.018;4.284;2023-07-02T11:53:56;23.13;;;7.22;;
18997;SDS011;9632;51.018;4.284;2023-07-02T11:56:23;25.42;;;8.38;;
18997;SDS011;9632;51.018;4.284;2023-07-02T11:58:49;20.13;;;7.50;;
18997;SDS011;9632;51.018;4.284;2023-07-02T12:01:14;20.08;;;7.88;;
18997;SDS011;9632;51.018;4.284;2023-07-02T12:03:40;21.45;;;7.57;;
18997;SDS011;9632;51.018;4.284;2023-07-02T12:06:06;19.63;;;6.72;;
18997;SDS011;9632;51.018;4.284;2023-07-02T12:08:31;22.35;;;7.60;;
18997;SDS011;9632;51.018;4.284;2023-07-02T12:10:57;19.85;;;6.80;;
18997;SDS011;9632;51.018;4.284;2023-07-02T12:13:22;24.42;;;7.40;;
18997;SDS011;9632;51.018;4.284;2023-07-02T12:15:48;21.27;;;7.15;;
18997;SDS011;9632;51.018;4.284;2023-07-02T12:18:16;19.20;;;6.68;;
18997;SDS011;9632;51.018;4.284;2023-07-02T12:20:42;23.23;;;7.25;;
18997;SDS011;9632;51.018;4.284;2023-07-02T12:23:08;16.92;;;7.20;;
18997;SDS011;9632;51.018;4.284;2023-07-02T12:25:35;17.45;;;6.90;;
18997;SDS011;9632;51.018;4.284;2023-07-02T12:28:01;20.08;;;6.88;;
18997;SDS011;9632;51.018;4.284;2023-07-02T12:30:28;18.80;;;7.10;;
18997;SDS011;9632;51.018;4.284;2023-07-02T12:32:53;21.67;;;7.13;;
18997;SDS011;9632;51.018;4.284;2023-07-02T12:35:19;18.55;;;7.00;;
18997;SDS011;9632;51.018;4.284;2023-07-02T12:37:45;21.45;;;7.28;;
18997;SDS011;9632;51.018;4.284;2023-07-02T12:40:13;16.67;;;6.63;;
18997;SDS011;9632;51.018;4.284;2023-07-02T12:42:40;18.27;;;7.45;;
18997;SDS011;9632;51.018;4.284;2023-07-02T12:45:06;18.13;;;7.10;;
18997;SDS011;9632;51.018;4.284;2023-07-02T12:47:33;16.48;;;7.00;;
18997;SDS011;9632;51.018;4.284;2023-07-02T12:49:58;16.55;;;6.75;;
18997;SDS011;9632;51.018;4.284;2023-07-02T12:52:24;18.70;;;6.70;;
18997;SDS011;9632;51.018;4.284;2023-07-02T12:54:49;19.08;;;6.68;;
18997;SDS011;9632;51.018;4.284;2023-07-02T12:57:15;16.95;;;6.75;;
18997;SDS011;9632;51.018;4.284;2023-07-02T12:59:41;18.58;;;6.95;;
18997;SDS011;9632;51.018;4.284;2023-07-02T13:02:09;16.75;;;6.53;;
18997;SDS011;9632;51.018;4.284;2023-07-02T13:04:35;23.83;;;7.30;;
18997;SDS011;9632;51.018;4.284;2023-07-02T13:07:00;23.15;;;7.07;;
18997;SDS011;9632;51.018;4.284;2023-07-02T13:09:26;17.35;;;6.45;;
18997;SDS011;9632;51.018;4.284;2023-07-02T13:11:52;19.40;;;7.18;;
18997;SDS011;9632;51.018;4.284;2023-07-02T13:14:17;21.73;;;7.40;;
18997;SDS011;9632;51.018;4.284;2023-07-02T13:16:43;19.30;;;7.40;;
18997;SDS011;9632;51.018;4.284;2023-07-02T13:19:08;21.58;;;7.30;;
18997;SDS011;9632;51.018;4.284;2023-07-02T13:21:34;16.02;;;6.72;;
18997;SDS011;9632;51.018;4.284;2023-07-02T13:24:00;20.15;;;7.03;;
18997;SDS011;9632;51.018;4.284;2023-07-02T13:26:25;17.63;;;6.60;;
18997;SDS011;9632;51.018;4.284;2023-07-02T13:28:51;19.10;;;7.03;;
18997;SDS011;9632;51.018;4.284;2023-07-02T13:31:17;20.55;;;7.22;;
18997;SDS011;9632;51.018;4.284;2023-07-02T13:33:42;17.70;;;7.00;;
18997;SDS011;9632;51.018;4.284;2023-07-02T13:36:08;19.80;;;7.10;;
18997;SDS011;9632;51.018;4.284;2023-07-02T13:38:34;20.00;;;6.82;;
18997;SDS011;9632;51.018;4.284;2023-07-02T13:41:00;21.85;;;7.40;;
18997;SDS011;9632;51.018;4.284;2023-07-02T13:43:26;19.98;;;7.00;;
18997;SDS011;9632;51.018;4.284;2023-07-02T13:45:52;19.40;;;6.70;;
18997;SDS011;9632;51.018;4.284;2023-07-02T13:48:17;19.55;;;7.15;;
18997;SDS011;9632;51.018;4.284;2023-07-02T13:50:43;22.02;;;7.30;;
18997;SDS011;9632;51.018;4.284;2023-07-02T13:53:08;21.08;;;7.03;;
18997;SDS011;9632;51.018;4.284;2023-07-02T13:55:34;21.83;;;6.85;;
18997;SDS011;9632;51.018;4.284;2023-07-02T13:58:00;16.35;;;6.38;;
18997;SDS011;9632;51.018;4.284;2023-07-02T14:00:28;19.00;;;6.85;;
18997;SDS011;9632;51.018;4.284;2023-07-02T14:02:54;22.75;;;7.35;;
18997;SDS011;9632;51.018;4.284;2023-07-02T14:05:20;16.15;;;6.38;;
18997;SDS011;9632;51.018;4.284;2023-07-02T14:07:47;15.07;;;6.18;;
18997;SDS011;9632;51.018;4.284;2023-07-02T14:10:13;15.75;;;6.13;;
18997;SDS011;9632;51.018;4.284;2023-07-02T14:12:39;18.45;;;6.72;;
18997;SDS011;9632;51.018;4.284;2023-07-02T14:15:06;20.90;;;6.68;;
18997;SDS011;9632;51.018;4.284;2023-07-02T14:17:32;17.35;;;6.30;;
18997;SDS011;9632;51.018;4.284;2023-07-02T14:19:58;15.60;;;6.40;;
18997;SDS011;9632;51.018;4.284;2023-07-02T14:22:24;20.63;;;7.13;;
18997;SDS011;9632;51.018;4.284;2023-07-02T14:24:49;20.40;;;6.30;;
18997;SDS011;9632;51.018;4.284;2023-07-02T14:27:15;17.88;;;6.35;;
18997;SDS011;9632;51.018;4.284;2023-07-02T14:29:41;14.48;;;6.13;;
18997;SDS011;9632;51.018;4.284;2023-07-02T14:32:07;13.60;;;5.78;;
18997;SDS011;9632;51.018;4.284;2023-07-02T14:34:33;16.77;;;6.40;;
18997;SDS011;9632;51.018;4.284;2023-07-02T14:36:58;15.63;;;6.05;;
18997;SDS011;9632;51.018;4.284;2023-07-02T14:39:24;17.63;;;6.57;;
18997;SDS011;9632;51.018;4.284;2023-07-02T14:41:50;19.90;;;5.97;;
18997;SDS011;9632;51.018;4.284;2023-07-02T14:44:16;15.40;;;6.13;;
18997;SDS011;9632;51.018;4.284;2023-07-02T14:46:42;16.30;;;6.45;;